SLOA4: Illinois River nr Siloam Springs AR

                                SHEF ID:       SLOA4     Illinois River South of Siloam S
STATION TYPE:

STAGE RIV-FLOW BAT-LOAD
ft cfs volt
Ccp-Rev Ccp-Rev Ccp-Rev
(America/Chicago)
04/29 00:00 5.79 1923 12.20
04/29 01:00 5.80 1930 12.17
04/29 02:00 5.81 1938 12.15
04/29 03:00 6.00 2074 12.12
04/29 04:00 6.98 2838 12.09
04/29 05:00 8.15 3891 12.06
04/29 06:00 8.89 4637 12.04
04/29 07:00 9.13 4892 12.03
04/29 08:00 9.02 4774 12.34
04/29 09:00 8.68 4420 13.13
04/29 10:00 8.29 4028 13.35
04/29 11:00 7.90 3652 13.09
04/29 12:00 7.55 3329 -999.90
04/29 13:00 7.26 3075 13.20
04/29 14:00 7.00 2855 13.22
04/29 15:00 6.79 2682 13.10
04/29 16:00 6.62 2545 12.94
04/29 17:00 6.46 2420 13.03
04/29 18:00 6.34 2327 12.92
04/29 19:00 6.22 2236 12.90
04/29 20:00 6.12 2162 12.87
04/29 21:00 6.02 2088 12.67
04/29 22:00 5.94 2030 12.54
04/29 23:00 5.86 1973 12.50
Data processed at Thu 30Apr2026 04:18 GMT

NOTICE: If you are parsing this page

Please convert to using our Data API. Starting early 2026 we will be migrating to: https://water.usace.army.mil with modern pages rendered in JavaScript. When this migration completes you will no longer be able to scrape this page! CWMSDataAPI (CDA)

Timeseries IDs (TSIDs)

TSIDs used from left to right in the data table
SILO.Stage.Inst.1Hour.0.Ccp-Rev
SILO.Flow.Inst.1Hour.0.Ccp-Rev
SILO.Volt-Battery Load.Inst.1Hour.0.Ccp-Rev

                            

All information presented herein is the property of the government of the United States of America and may be revised or deleted at any time without prior notice. Dissemination of this information without the expressed written consent of the Public Affairs Office, Tulsa District U.S. Army Corps of Engineers is strictly prohibited. These data are gathered electronically and, as presented, have NOT undergone any form of quality control. These data are NOT guaranteed to be valid or correct.